sensor_id;sensor_type;location;lat;lon;timestamp;P1;durP1;ratioP1;P2;durP2;ratioP2
60257;SDS011;46115;44.484;11.314;2023-03-03T00:07:11;40.83;;;24.35;;
60257;SDS011;46115;44.484;11.314;2023-03-03T00:11:16;38.58;;;26.10;;
60257;SDS011;46115;44.484;11.314;2023-03-03T00:15:20;38.55;;;24.35;;
60257;SDS011;46115;44.484;11.314;2023-03-03T00:19:24;39.00;;;26.08;;
60257;SDS011;46115;44.484;11.314;2023-03-03T00:23:30;40.05;;;26.08;;
60257;SDS011;46115;44.484;11.314;2023-03-03T00:27:38;37.38;;;24.73;;
60257;SDS011;46115;44.484;11.314;2023-03-03T00:31:40;34.58;;;23.40;;
60257;SDS011;46115;44.484;11.314;2023-03-03T00:39:45;35.17;;;23.52;;
60257;SDS011;46115;44.484;11.314;2023-03-03T00:43:49;36.45;;;23.10;;
60257;SDS011;46115;44.484;11.314;2023-03-03T00:47:52;34.75;;;23.85;;
60257;SDS011;46115;44.484;11.314;2023-03-03T00:51:54;36.25;;;24.80;;
60257;SDS011;46115;44.484;11.314;2023-03-03T00:55:57;38.90;;;25.33;;
60257;SDS011;46115;44.484;11.314;2023-03-03T01:00:01;37.28;;;24.67;;
60257;SDS011;46115;44.484;11.314;2023-03-03T01:04:05;36.58;;;24.27;;
60257;SDS011;46115;44.484;11.314;2023-03-03T01:08:08;35.20;;;23.92;;
60257;SDS011;46115;44.484;11.314;2023-03-03T01:12:11;38.22;;;24.48;;
60257;SDS011;46115;44.484;11.314;2023-03-03T01:16:15;37.78;;;23.88;;
60257;SDS011;46115;44.484;11.314;2023-03-03T01:20:18;35.40;;;24.23;;
60257;SDS011;46115;44.484;11.314;2023-03-03T01:24:20;35.40;;;23.50;;
60257;SDS011;46115;44.484;11.314;2023-03-03T01:28:23;37.03;;;24.63;;
60257;SDS011;46115;44.484;11.314;2023-03-03T01:32:27;34.20;;;22.67;;
60257;SDS011;46115;44.484;11.314;2023-03-03T01:36:29;39.42;;;24.83;;
60257;SDS011;46115;44.484;11.314;2023-03-03T01:44:37;38.53;;;23.80;;
60257;SDS011;46115;44.484;11.314;2023-03-03T01:52:44;35.03;;;23.55;;
60257;SDS011;46115;44.484;11.314;2023-03-03T01:56:49;33.50;;;23.40;;
60257;SDS011;46115;44.484;11.314;2023-03-03T02:00:56;35.13;;;23.88;;
60257;SDS011;46115;44.484;11.314;2023-03-03T02:05:02;36.33;;;23.70;;
60257;SDS011;46115;44.484;11.314;2023-03-03T02:09:06;34.03;;;23.33;;
60257;SDS011;46115;44.484;11.314;2023-03-03T02:13:13;37.63;;;23.83;;
60257;SDS011;46115;44.484;11.314;2023-03-03T02:17:16;41.83;;;25.00;;
60257;SDS011;46115;44.484;11.314;2023-03-03T02:21:20;35.65;;;23.13;;
60257;SDS011;46115;44.484;11.314;2023-03-03T02:25:26;33.13;;;23.17;;
60257;SDS011;46115;44.484;11.314;2023-03-03T02:29:33;32.67;;;23.08;;
60257;SDS011;46115;44.484;11.314;2023-03-03T02:33:37;33.55;;;22.48;;
60257;SDS011;46115;44.484;11.314;2023-03-03T02:37:39;35.92;;;23.13;;
60257;SDS011;46115;44.484;11.314;2023-03-03T02:41:43;34.72;;;22.77;;
60257;SDS011;46115;44.484;11.314;2023-03-03T02:45:52;34.63;;;23.92;;
60257;SDS011;46115;44.484;11.314;2023-03-03T02:49:54;33.38;;;23.60;;
60257;SDS011;46115;44.484;11.314;2023-03-03T02:58:01;32.60;;;22.52;;
60257;SDS011;46115;44.484;11.314;2023-03-03T03:02:05;32.58;;;21.70;;
60257;SDS011;46115;44.484;11.314;2023-03-03T03:06:09;35.33;;;23.35;;
60257;SDS011;46115;44.484;11.314;2023-03-03T03:10:11;33.95;;;21.92;;
60257;SDS011;46115;44.484;11.314;2023-03-03T03:14:15;32.88;;;22.48;;
60257;SDS011;46115;44.484;11.314;2023-03-03T03:18:19;37.92;;;23.20;;
60257;SDS011;46115;44.484;11.314;2023-03-03T03:22:23;33.58;;;22.23;;
60257;SDS011;46115;44.484;11.314;2023-03-03T03:26:26;32.67;;;21.17;;
60257;SDS011;46115;44.484;11.314;2023-03-03T03:30:30;34.65;;;22.17;;
60257;SDS011;46115;44.484;11.314;2023-03-03T03:34:34;33.17;;;22.08;;
60257;SDS011;46115;44.484;11.314;2023-03-03T03:38:38;34.55;;;21.88;;
60257;SDS011;46115;44.484;11.314;2023-03-03T03:42:42;32.72;;;20.95;;
60257;SDS011;46115;44.484;11.314;2023-03-03T03:46:45;35.55;;;22.23;;
60257;SDS011;46115;44.484;11.314;2023-03-03T03:50:49;33.58;;;21.67;;
60257;SDS011;46115;44.484;11.314;2023-03-03T03:54:52;33.15;;;21.27;;
60257;SDS011;46115;44.484;11.314;2023-03-03T03:58:55;33.22;;;20.58;;
60257;SDS011;46115;44.484;11.314;2023-03-03T04:02:58;32.15;;;21.00;;
60257;SDS011;46115;44.484;11.314;2023-03-03T04:07:02;29.35;;;20.83;;
60257;SDS011;46115;44.484;11.314;2023-03-03T04:11:05;31.30;;;20.80;;
60257;SDS011;46115;44.484;11.314;2023-03-03T04:15:08;31.98;;;20.75;;
60257;SDS011;46115;44.484;11.314;2023-03-03T04:19:13;33.85;;;20.75;;
60257;SDS011;46115;44.484;11.314;2023-03-03T04:23:18;30.92;;;19.65;;
60257;SDS011;46115;44.484;11.314;2023-03-03T04:27:21;31.42;;;20.30;;
60257;SDS011;46115;44.484;11.314;2023-03-03T04:31:24;30.58;;;19.48;;
60257;SDS011;46115;44.484;11.314;2023-03-03T04:35:28;30.88;;;19.85;;
60257;SDS011;46115;44.484;11.314;2023-03-03T04:39:32;30.10;;;19.75;;
60257;SDS011;46115;44.484;11.314;2023-03-03T04:43:35;30.45;;;20.33;;
60257;SDS011;46115;44.484;11.314;2023-03-03T04:47:39;30.60;;;20.42;;
60257;SDS011;46115;44.484;11.314;2023-03-03T04:51:42;30.85;;;21.25;;
60257;SDS011;46115;44.484;11.314;2023-03-03T04:55:48;36.30;;;22.38;;
60257;SDS011;46115;44.484;11.314;2023-03-03T04:59:51;32.97;;;21.23;;
60257;SDS011;46115;44.484;11.314;2023-03-03T05:03:53;31.98;;;21.00;;
60257;SDS011;46115;44.484;11.314;2023-03-03T05:07:56;30.33;;;20.45;;
60257;SDS011;46115;44.484;11.314;2023-03-03T05:12:00;30.77;;;20.45;;
60257;SDS011;46115;44.484;11.314;2023-03-03T05:16:02;28.92;;;19.00;;
60257;SDS011;46115;44.484;11.314;2023-03-03T05:20:06;31.30;;;20.23;;
60257;SDS011;46115;44.484;11.314;2023-03-03T05:24:10;28.80;;;20.27;;
60257;SDS011;46115;44.484;11.314;2023-03-03T05:28:16;31.50;;;19.13;;
60257;SDS011;46115;44.484;11.314;2023-03-03T05:32:19;30.65;;;19.67;;
60257;SDS011;46115;44.484;11.314;2023-03-03T05:36:21;29.83;;;18.88;;
60257;SDS011;46115;44.484;11.314;2023-03-03T05:40:23;33.03;;;19.63;;
60257;SDS011;46115;44.484;11.314;2023-03-03T05:44:28;31.55;;;20.10;;
60257;SDS011;46115;44.484;11.314;2023-03-03T05:48:30;28.30;;;18.27;;
60257;SDS011;46115;44.484;11.314;2023-03-03T05:52:32;28.30;;;19.30;;
60257;SDS011;46115;44.484;11.314;2023-03-03T05:56:34;33.90;;;20.00;;
60257;SDS011;46115;44.484;11.314;2023-03-03T06:04:40;29.90;;;18.98;;
60257;SDS011;46115;44.484;11.314;2023-03-03T06:08:42;33.30;;;20.33;;
60257;SDS011;46115;44.484;11.314;2023-03-03T06:16:48;35.43;;;19.50;;
60257;SDS011;46115;44.484;11.314;2023-03-03T06:20:51;33.55;;;20.50;;
60257;SDS011;46115;44.484;11.314;2023-03-03T06:24:54;29.90;;;19.80;;
60257;SDS011;46115;44.484;11.314;2023-03-03T06:32:59;30.07;;;19.20;;
60257;SDS011;46115;44.484;11.314;2023-03-03T06:37:02;32.47;;;20.13;;
60257;SDS011;46115;44.484;11.314;2023-03-03T06:41:04;30.17;;;19.50;;
60257;SDS011;46115;44.484;11.314;2023-03-03T06:45:08;32.00;;;19.92;;
60257;SDS011;46115;44.484;11.314;2023-03-03T06:49:12;30.80;;;19.88;;
60257;SDS011;46115;44.484;11.314;2023-03-03T06:53:16;27.52;;;18.63;;
60257;SDS011;46115;44.484;11.314;2023-03-03T06:57:22;31.35;;;19.70;;
60257;SDS011;46115;44.484;11.314;2023-03-03T07:01:29;30.75;;;20.35;;
60257;SDS011;46115;44.484;11.314;2023-03-03T07:05:37;29.88;;;19.33;;
60257;SDS011;46115;44.484;11.314;2023-03-03T07:09:39;32.00;;;20.60;;
60257;SDS011;46115;44.484;11.314;2023-03-03T07:17:47;28.58;;;19.05;;
60257;SDS011;46115;44.484;11.314;2023-03-03T07:21:51;32.83;;;18.95;;
60257;SDS011;46115;44.484;11.314;2023-03-03T07:25:54;26.90;;;18.38;;
60257;SDS011;46115;44.484;11.314;2023-03-03T07:34:16;28.10;;;19.42;;
60257;SDS011;46115;44.484;11.314;2023-03-03T07:38:24;29.23;;;19.38;;
60257;SDS011;46115;44.484;11.314;2023-03-03T07:42:33;27.83;;;18.35;;
60257;SDS011;46115;44.484;11.314;2023-03-03T07:46:55;25.40;;;18.02;;
60257;SDS011;46115;44.484;11.314;2023-03-03T07:50:58;27.50;;;18.98;;
60257;SDS011;46115;44.484;11.314;2023-03-03T07:55:18;27.17;;;19.38;;
60257;SDS011;46115;44.484;11.314;2023-03-03T07:59:24;29.60;;;20.00;;
60257;SDS011;46115;44.484;11.314;2023-03-03T08:03:27;26.83;;;18.88;;
60257;SDS011;46115;44.484;11.314;2023-03-03T08:11:32;28.03;;;19.23;;
60257;SDS011;46115;44.484;11.314;2023-03-03T08:15:35;29.55;;;19.23;;
60257;SDS011;46115;44.484;11.314;2023-03-03T08:19:38;25.45;;;19.17;;
60257;SDS011;46115;44.484;11.314;2023-03-03T08:23:41;28.42;;;19.55;;
60257;SDS011;46115;44.484;11.314;2023-03-03T08:27:45;27.13;;;19.38;;
60257;SDS011;46115;44.484;11.314;2023-03-03T08:31:48;29.88;;;20.33;;
60257;SDS011;46115;44.484;11.314;2023-03-03T08:35:50;30.48;;;22.92;;
60257;SDS011;46115;44.484;11.314;2023-03-03T08:39:52;29.70;;;22.17;;
60257;SDS011;46115;44.484;11.314;2023-03-03T08:43:56;30.30;;;21.77;;
60257;SDS011;46115;44.484;11.314;2023-03-03T08:47:58;29.52;;;20.88;;
60257;SDS011;46115;44.484;11.314;2023-03-03T08:52:01;30.05;;;21.52;;
60257;SDS011;46115;44.484;11.314;2023-03-03T09:04:11;30.52;;;20.05;;
60257;SDS011;46115;44.484;11.314;2023-03-03T09:08:14;28.17;;;21.15;;
60257;SDS011;46115;44.484;11.314;2023-03-03T09:16:21;27.65;;;20.75;;
60257;SDS011;46115;44.484;11.314;2023-03-03T09:20:28;28.25;;;21.55;;
60257;SDS011;46115;44.484;11.314;2023-03-03T09:24:34;31.98;;;21.90;;
60257;SDS011;46115;44.484;11.314;2023-03-03T09:28:37;29.35;;;22.27;;
60257;SDS011;46115;44.484;11.314;2023-03-03T09:32:41;32.20;;;22.15;;
60257;SDS011;46115;44.484;11.314;2023-03-03T09:36:44;31.80;;;22.77;;
60257;SDS011;46115;44.484;11.314;2023-03-03T09:40:49;30.13;;;24.40;;
60257;SDS011;46115;44.484;11.314;2023-03-03T09:45:17;38.75;;;25.75;;
60257;SDS011;46115;44.484;11.314;2023-03-03T09:49:30;37.67;;;27.35;;
60257;SDS011;46115;44.484;11.314;2023-03-03T09:53:38;37.85;;;27.17;;
60257;SDS011;46115;44.484;11.314;2023-03-03T09:57:59;37.35;;;28.60;;
60257;SDS011;46115;44.484;11.314;2023-03-03T10:02:21;36.85;;;27.58;;
60257;SDS011;46115;44.484;11.314;2023-03-03T10:06:34;38.65;;;30.67;;
60257;SDS011;46115;44.484;11.314;2023-03-03T10:10:47;38.83;;;29.98;;
60257;SDS011;46115;44.484;11.314;2023-03-03T10:15:02;38.72;;;30.92;;
60257;SDS011;46115;44.484;11.314;2023-03-03T10:19:26;37.65;;;30.85;;
60257;SDS011;46115;44.484;11.314;2023-03-03T10:23:49;41.63;;;31.02;;
60257;SDS011;46115;44.484;11.314;2023-03-03T10:28:04;39.50;;;30.23;;
60257;SDS011;46115;44.484;11.314;2023-03-03T10:36:52;33.42;;;28.25;;
60257;SDS011;46115;44.484;11.314;2023-03-03T10:41:03;38.15;;;28.23;;
60257;SDS011;46115;44.484;11.314;2023-03-03T10:49:55;32.47;;;24.35;;
60257;SDS011;46115;44.484;11.314;2023-03-03T10:54:11;29.33;;;21.80;;
60257;SDS011;46115;44.484;11.314;2023-03-03T10:58:29;28.48;;;20.58;;
60257;SDS011;46115;44.484;11.314;2023-03-03T11:02:48;24.50;;;18.63;;
60257;SDS011;46115;44.484;11.314;2023-03-03T11:07:10;23.48;;;16.50;;
60257;SDS011;46115;44.484;11.314;2023-03-03T11:11:22;21.80;;;16.95;;
60257;SDS011;46115;44.484;11.314;2023-03-03T11:19:50;27.08;;;20.77;;
60257;SDS011;46115;44.484;11.314;2023-03-03T11:24:18;28.52;;;20.38;;
60257;SDS011;46115;44.484;11.314;2023-03-03T11:28:35;27.20;;;20.08;;
60257;SDS011;46115;44.484;11.314;2023-03-03T11:32:51;28.05;;;17.48;;
60257;SDS011;46115;44.484;11.314;2023-03-03T11:37:00;28.67;;;21.05;;
60257;SDS011;46115;44.484;11.314;2023-03-03T11:41:10;31.58;;;21.30;;
60257;SDS011;46115;44.484;11.314;2023-03-03T11:45:21;29.13;;;20.02;;
60257;SDS011;46115;44.484;11.314;2023-03-03T11:49:31;28.27;;;20.08;;
60257;SDS011;46115;44.484;11.314;2023-03-03T11:53:41;30.35;;;20.08;;
60257;SDS011;46115;44.484;11.314;2023-03-03T11:57:56;27.73;;;19.33;;
60257;SDS011;46115;44.484;11.314;2023-03-03T12:02:13;24.13;;;16.08;;
60257;SDS011;46115;44.484;11.314;2023-03-03T12:06:49;20.77;;;13.10;;
60257;SDS011;46115;44.484;11.314;2023-03-03T12:11:04;17.75;;;11.38;;
60257;SDS011;46115;44.484;11.314;2023-03-03T12:15:17;17.52;;;12.63;;
60257;SDS011;46115;44.484;11.314;2023-03-03T12:19:31;20.65;;;12.32;;
60257;SDS011;46115;44.484;11.314;2023-03-03T12:23:44;23.63;;;13.93;;
60257;SDS011;46115;44.484;11.314;2023-03-03T12:27:55;23.77;;;13.68;;
60257;SDS011;46115;44.484;11.314;2023-03-03T12:32:03;20.55;;;13.80;;
60257;SDS011;46115;44.484;11.314;2023-03-03T12:36:20;21.75;;;13.55;;
60257;SDS011;46115;44.484;11.314;2023-03-03T12:40:33;21.58;;;13.05;;
60257;SDS011;46115;44.484;11.314;2023-03-03T12:44:37;21.55;;;13.10;;
60257;SDS011;46115;44.484;11.314;2023-03-03T12:48:45;20.50;;;13.85;;
60257;SDS011;46115;44.484;11.314;2023-03-03T12:52:50;21.75;;;14.65;;
60257;SDS011;46115;44.484;11.314;2023-03-03T12:57:03;23.77;;;14.90;;
60257;SDS011;46115;44.484;11.314;2023-03-03T13:01:17;23.17;;;14.85;;
60257;SDS011;46115;44.484;11.314;2023-03-03T13:05:33;20.13;;;14.15;;
60257;SDS011;46115;44.484;11.314;2023-03-03T13:09:54;22.00;;;13.85;;
60257;SDS011;46115;44.484;11.314;2023-03-03T13:14:09;19.65;;;13.80;;
60257;SDS011;46115;44.484;11.314;2023-03-03T13:18:23;18.65;;;13.18;;
60257;SDS011;46115;44.484;11.314;2023-03-03T13:22:36;19.48;;;12.60;;
60257;SDS011;46115;44.484;11.314;2023-03-03T13:26:43;19.17;;;13.03;;
60257;SDS011;46115;44.484;11.314;2023-03-03T13:30:54;18.35;;;12.88;;
60257;SDS011;46115;44.484;11.314;2023-03-03T13:35:04;20.67;;;13.80;;
60257;SDS011;46115;44.484;11.314;2023-03-03T13:39:11;17.13;;;13.80;;
60257;SDS011;46115;44.484;11.314;2023-03-03T13:43:21;15.70;;;12.88;;
60257;SDS011;46115;44.484;11.314;2023-03-03T13:47:29;21.05;;;14.40;;
60257;SDS011;46115;44.484;11.314;2023-03-03T13:51:38;21.35;;;14.90;;
60257;SDS011;46115;44.484;11.314;2023-03-03T13:55:47;14.77;;;10.73;;
60257;SDS011;46115;44.484;11.314;2023-03-03T14:00:01;14.75;;;10.57;;
60257;SDS011;46115;44.484;11.314;2023-03-03T14:04:17;14.90;;;11.27;;
60257;SDS011;46115;44.484;11.314;2023-03-03T14:08:38;14.57;;;11.00;;
60257;SDS011;46115;44.484;11.314;2023-03-03T14:12:50;14.23;;;10.52;;
60257;SDS011;46115;44.484;11.314;2023-03-03T14:17:02;18.13;;;10.93;;
60257;SDS011;46115;44.484;11.314;2023-03-03T14:21:16;16.10;;;11.38;;
60257;SDS011;46115;44.484;11.314;2023-03-03T14:25:21;17.65;;;12.30;;
60257;SDS011;46115;44.484;11.314;2023-03-03T14:29:29;20.60;;;11.85;;
60257;SDS011;46115;44.484;11.314;2023-03-03T14:33:33;16.23;;;11.77;;
60257;SDS011;46115;44.484;11.314;2023-03-03T14:37:42;18.90;;;12.25;;
60257;SDS011;46115;44.484;11.314;2023-03-03T14:41:46;15.68;;;11.30;;
60257;SDS011;46115;44.484;11.314;2023-03-03T14:45:49;16.15;;;12.35;;
60257;SDS011;46115;44.484;11.314;2023-03-03T14:49:51;15.95;;;11.98;;
60257;SDS011;46115;44.484;11.314;2023-03-03T14:53:57;16.05;;;11.73;;
60257;SDS011;46115;44.484;11.314;2023-03-03T14:57:59;17.05;;;12.32;;
60257;SDS011;46115;44.484;11.314;2023-03-03T15:02:22;16.70;;;12.43;;
60257;SDS011;46115;44.484;11.314;2023-03-03T15:06:32;16.90;;;12.07;;
60257;SDS011;46115;44.484;11.314;2023-03-03T15:10:57;16.27;;;11.73;;
60257;SDS011;46115;44.484;11.314;2023-03-03T15:15:16;17.48;;;12.65;;
60257;SDS011;46115;44.484;11.314;2023-03-03T15:19:41;15.73;;;11.68;;
60257;SDS011;46115;44.484;11.314;2023-03-03T15:24:00;15.10;;;11.40;;
60257;SDS011;46115;44.484;11.314;2023-03-03T15:28:16;14.90;;;11.15;;
60257;SDS011;46115;44.484;11.314;2023-03-03T15:32:30;15.30;;;10.90;;
60257;SDS011;46115;44.484;11.314;2023-03-03T15:36:39;15.35;;;10.48;;
60257;SDS011;46115;44.484;11.314;2023-03-03T15:40:48;16.40;;;10.23;;
60257;SDS011;46115;44.484;11.314;2023-03-03T15:45:01;14.68;;;9.98;;
60257;SDS011;46115;44.484;11.314;2023-03-03T15:49:12;13.85;;;9.65;;
60257;SDS011;46115;44.484;11.314;2023-03-03T15:53:27;15.52;;;9.90;;
60257;SDS011;46115;44.484;11.314;2023-03-03T15:57:39;15.40;;;9.82;;
60257;SDS011;46115;44.484;11.314;2023-03-03T16:01:54;15.82;;;10.30;;
60257;SDS011;46115;44.484;11.314;2023-03-03T16:06:10;14.35;;;9.70;;
60257;SDS011;46115;44.484;11.314;2023-03-03T16:10:20;15.90;;;9.73;;
60257;SDS011;46115;44.484;11.314;2023-03-03T16:14:37;15.13;;;9.80;;
60257;SDS011;46115;44.484;11.314;2023-03-03T16:18:56;14.15;;;9.23;;
60257;SDS011;46115;44.484;11.314;2023-03-03T16:23:16;13.60;;;9.88;;
60257;SDS011;46115;44.484;11.314;2023-03-03T16:27:29;12.93;;;9.90;;
60257;SDS011;46115;44.484;11.314;2023-03-03T16:31:39;17.95;;;10.07;;
60257;SDS011;46115;44.484;11.314;2023-03-03T16:35:50;12.98;;;9.82;;
60257;SDS011;46115;44.484;11.314;2023-03-03T16:44:21;16.15;;;9.82;;
60257;SDS011;46115;44.484;11.314;2023-03-03T16:48:36;14.00;;;9.70;;
60257;SDS011;46115;44.484;11.314;2023-03-03T16:52:48;14.68;;;9.43;;
60257;SDS011;46115;44.484;11.314;2023-03-03T16:56:59;13.80;;;9.77;;
60257;SDS011;46115;44.484;11.314;2023-03-03T17:01:11;16.23;;;10.25;;
60257;SDS011;46115;44.484;11.314;2023-03-03T17:05:33;15.27;;;10.10;;
60257;SDS011;46115;44.484;11.314;2023-03-03T17:09:50;16.63;;;10.40;;
60257;SDS011;46115;44.484;11.314;2023-03-03T17:14:17;9.57;;;7.07;;
60257;SDS011;46115;44.484;11.314;2023-03-03T17:18:44;12.60;;;7.30;;
60257;SDS011;46115;44.484;11.314;2023-03-03T17:23:02;14.40;;;7.05;;
60257;SDS011;46115;44.484;11.314;2023-03-03T17:27:18;9.20;;;6.30;;
60257;SDS011;46115;44.484;11.314;2023-03-03T17:31:30;10.30;;;6.70;;
60257;SDS011;46115;44.484;11.314;2023-03-03T23:06:08;20.90;;;12.50;;
60257;SDS011;46115;44.484;11.314;2023-03-03T23:10:11;16.58;;;11.60;;
60257;SDS011;46115;44.484;11.314;2023-03-03T23:14:13;17.13;;;11.57;;
60257;SDS011;46115;44.484;11.314;2023-03-03T23:22:19;17.80;;;11.67;;
60257;SDS011;46115;44.484;11.314;2023-03-03T23:26:21;16.83;;;10.73;;
60257;SDS011;46115;44.484;11.314;2023-03-03T23:30:23;19.08;;;12.68;;
60257;SDS011;46115;44.484;11.314;2023-03-03T23:38:29;20.10;;;12.73;;
60257;SDS011;46115;44.484;11.314;2023-03-03T23:42:32;19.63;;;12.48;;
60257;SDS011;46115;44.484;11.314;2023-03-03T23:50:37;17.63;;;10.48;;
60257;SDS011;46115;44.484;11.314;2023-03-03T23:54:41;17.08;;;12.20;;
60257;SDS011;46115;44.484;11.314;2023-03-03T23:58:43;15.10;;;11.20;;
